ADDS METAR Data INFO
IDs: Format: Raw Decoded Include TAF

Data at: 0855 UTC 19 Jun 2018

KGWW 190835Z AUTO 23006KT 10SM CLR 24/23 A2994 RMK AO2 T02380229
KGWW 190815Z AUTO 24006KT 10SM CLR 24/23 A2995 RMK AO2 T02370229
KGWW 190755Z AUTO 00000KT 10SM CLR 24/23 A2995 RMK AO2 T02360228
KGWW 190735Z AUTO 00000KT 10SM CLR 24/23 A2995 RMK AO2 T02350228
KGWW 190715Z AUTO 00000KT 10SM CLR 24/23 A2995 RMK AO2 T02350227
KGWW 190655Z AUTO 00000KT 10SM CLR 24/23 A2995 RMK AO2 T02350226
KGWW 190635Z AUTO 00000KT 10SM CLR 24/23 A2996 RMK AO2 T02380225
KGWW 190615Z AUTO 00000KT 10SM CLR 24/23 A2996 RMK AO2 T02400225
KGWW 190555Z AUTO 00000KT 10SM CLR 24/23 A2996 RMK AO2 T02390226 10312 20238 403460236
KGWW 190535Z AUTO 00000KT 10SM CLR 24/23 A2997 RMK AO2 T02430225
KGWW 190515Z AUTO 00000KT 10SM CLR 25/23 A2997 RMK AO2 T02450225
KGWW 190455Z AUTO 00000KT 10SM CLR 25/23 A2998 RMK AO2 T02450225
KGWW 190435Z AUTO 00000KT 10SM CLR 25/23 A2998 RMK AO2 T02480225
KGWW 190415Z AUTO 00000KT 10SM CLR 25/23 A2999 RMK AO2 T02500225
KGWW 190355Z AUTO 00000KT 10SM CLR 25/23 A2999 RMK AO2 T02510227
KGWW 190335Z AUTO 00000KT 10SM CLR 26/23 A2999 RMK AO2 T02550230
KGWW 190315Z AUTO 00000KT 10SM CLR 26/23 A2998 RMK AO2 T02580232
KGWW 190255Z AUTO 00000KT 10SM CLR 27/23 A2998 RMK AO2 T02650230
KGWW 190235Z AUTO 00000KT 10SM CLR 27/24 A2999 RMK AO2 T02650244
KGWW 190215Z AUTO 00000KT 10SM CLR 27/25 A2998 RMK AO2 T02660246
KGWW 190155Z AUTO 00000KT 10SM CLR 27/25 A2998 RMK AO2 T02710247
KGWW 190135Z AUTO 00000KT 10SM CLR 28/25 A2997 RMK AO2 T02760246
KGWW 190115Z AUTO 00000KT 10SM CLR 27/25 A2997 RMK AO2 T02650254
KGWW 190055Z AUTO 00000KT 10SM CLR 27/25 A2996 RMK AO2 T02740254
KGWW 190035Z AUTO 00000KT 10SM CLR 28/26 A2997 RMK AO2 T02760256
KGWW 190015Z AUTO 00000KT 10SM CLR 30/25 A2997 RMK AO2 T02960247
KGWW 182355Z AUTO 00000KT 10SM CLR 32/25 A2997 RMK AO2 T03160248 10346 20316
KGWW 182335Z AUTO 00000KT 10SM CLR 33/23 A2997 RMK AO2 T03270227
KGWW 182315Z AUTO 00000KT 10SM CLR 33/23 A2997 RMK AO2 T03320226
KGWW 182255Z AUTO 00000KT 10SM CLR 34/22 A2997 RMK AO2 T03350224
KGWW 182235Z AUTO 00000KT 10SM CLR 34/22 A2997 RMK AO2 T03390216
KGWW 182215Z AUTO 00000KT 10SM CLR 34/22 A2998 RMK AO2 T03410218
KGWW 182155Z AUTO 00000KT 10SM CLR 34/22 A2998 RMK AO2 T03410215
KGWW 182135Z AUTO 00000KT 10SM CLR 34/22 A2998 RMK AO2 T03440218
KGWW 182115Z AUTO 00000KT 10SM CLR 34/22 A2998 RMK AO2 T03420221
KGWW 182055Z AUTO 00000KT 10SM CLR 35/23 A2998 RMK AO2 T03450228
KGWW 182035Z AUTO 34004KT 10SM CLR 34/23 A2998 RMK AO2 T03430226
KGWW 182015Z AUTO 34006KT 310V010 10SM CLR 35/23 A2999 RMK AO2 T03450231
KGWW 181955Z AUTO 31005KT 10SM CLR 34/24 A3000 RMK AO2 T03440237
KGWW 181935Z AUTO 32005KT 10SM CLR 34/24 A3000 RMK AO2 T03410235
KGWW 181915Z AUTO 28003KT 10SM SCT048 34/24 A3002 RMK AO2 T03370235
KGWW 181855Z AUTO 34003KT 10SM SCT049 34/23 A3003 RMK AO2 T03360232
KGWW 181835Z AUTO 33004KT 10SM SCT042 33/24 A3004 RMK AO2 T03330239
KGWW 181815Z AUTO 26003KT 10SM CLR 33/24 A3004 RMK AO2 T03300244
KGWW 181755Z AUTO 36003KT 10SM CLR 33/24 A3005 RMK AO2 T03250241 10328 20252
KGWW 181735Z AUTO 36003KT 10SM CLR 32/25 A3005 RMK AO2 T03230247
KGWW 181715Z AUTO 33003KT 10SM SCT034 32/25 A3005 RMK AO2 T03180247
KGWW 181655Z AUTO 00000KT 10SM SCT034 SCT040 SCT120 32/25 A3006 RMK AO2 T03150250
KGWW 181635Z AUTO 34003KT 10SM SCT040 32/25 A3006 RMK AO2 T03160252
KGWW 181615Z AUTO 32003KT 10SM CLR 31/25 A3006 RMK AO2 T03130252
KGWW 181555Z AUTO 00000KT 10SM CLR 31/25 A3007 RMK AO2 T03060249
KGWW 181535Z AUTO 35003KT 10SM CLR 30/25 A3007 RMK AO2 T03030248
KGWW 181515Z AUTO 31003KT 10SM CLR 30/25 A3007 RMK AO2 T03020250
KGWW 181455Z AUTO 00000KT 10SM CLR 30/25 A3007 RMK AO2 T02980247
KGWW 181435Z AUTO 00000KT 10SM CLR 29/25 A3007 RMK AO2 T02940250
KGWW 181415Z AUTO 00000KT 10SM CLR 29/25 A3007 RMK AO2 T02890247
KGWW 181355Z AUTO 00000KT 10SM CLR 28/25 A3007 RMK AO2 T02840246
KGWW 181335Z AUTO 00000KT 10SM CLR 28/25 A3008 RMK AO2 T02800246
KGWW 181315Z AUTO 26003KT 10SM CLR 27/25 A3008 RMK AO2 T02740245
KGWW 181255Z AUTO 28004KT 10SM CLR 27/25 A3008 RMK AO2 T02700245
KGWW 181235Z AUTO 29005KT 10SM CLR 27/24 A3008 RMK AO2 T02650244
KGWW 181215Z AUTO 25003KT 10SM CLR 26/24 A3008 RMK AO2 T02570242
KGWW 181155Z AUTO 24006KT 10SM SCT120 26/24 A3007 RMK AO2 T02550241 10256 20236
KGWW 181135Z AUTO 23005KT 10SM BKN120 25/24 A3007 RMK AO2 T02520242
KGWW 181115Z AUTO 23006KT 10SM SCT095 BKN120 24/24 A3008 RMK AO2 T02420240
KGWW 181055Z AUTO 22005KT 10SM BKN095 BKN110 24/24 A3008 RMK AO2 T02390239
KGWW 181035Z AUTO 22007KT 10SM SCT095 BKN120 24/24 A3008 RMK AO2 T02380238
KGWW 181015Z AUTO 22004KT 10SM SCT100 BKN120 24/24 A3008 RMK AO2 T02360236
KGWW 180955Z AUTO 21006KT 10SM SCT048 SCT070 BKN100 24/24 A3007 RMK AO2 T02370237
KGWW 180935Z AUTO 22005KT 10SM SCT055 BKN070 BKN080 24/24 A3008 RMK AO2 T02400239
KGWW 180915Z AUTO 27004KT 10SM SCT070 BKN080 BKN090 24/24 A3007 RMK AO2 T02380238
KGWW 180855Z AUTO 23003KT 10SM SCT060 SCT080 BKN095 24/24 A3007 RMK AO2 T02400239
KGWW 180835Z AUTO 00000KT 10SM SCT070 SCT085 SCT110 24/24 A3008 RMK AO2 T02420238
KGWW 180815Z AUTO 33006KT 10SM SCT070 SCT090 24/24 A3008 RMK AO2 T02440239
KGWW 180755Z AUTO 23008KT 10SM SCT100 25/24 A3007 RMK AO2 T02450239
KGWW 180735Z AUTO 24008KT 10SM BKN090 25/24 A3007 RMK AO2 T02450240
KGWW 180715Z AUTO 23008KT 10SM BKN090 25/24 A3007 RMK AO2 T02470240
KGWW 180655Z AUTO 23009KT 10SM CLR 25/24 A3007 RMK AO2 T02470240
KGWW 180635Z AUTO 23012KT 10SM CLR 25/24 A3006 RMK AO2 T02480240
KGWW 180615Z AUTO 23009KT 10SM CLR 25/24 A3006 RMK AO2 T02470240
KGWW 180555Z AUTO 23009KT 10SM CLR 25/24 A3007 RMK AO2 T02460240 10263 20236 403410211
KGWW 180535Z AUTO 21008KT 10SM CLR 25/24 A3008 RMK AO2 T02480240
KGWW 180515Z AUTO 22010KT 10SM CLR 25/24 A3008 RMK AO2 T02500240
KGWW 180455Z AUTO 21008KT 10SM CLR 25/24 A3009 RMK AO2 T02510240
KGWW 180435Z AUTO 22009KT 10SM CLR 25/24 A3008 RMK AO2 T02510241
KGWW 180415Z AUTO 21009KT 10SM SCT060 SCT085 25/24 A3009 RMK AO2 T02520242
KGWW 180355Z AUTO 20007KT 10SM CLR 26/24 A3009 RMK AO2 T02550243
KGWW 180335Z AUTO 21006KT 10SM CLR 25/25 A3008 RMK AO2 T02530245
KGWW 180315Z AUTO 21006KT 10SM CLR 25/25 A3008 RMK AO2 T02500245
KGWW 180255Z AUTO 21003KT 10SM CLR 24/24 A3008 RMK AO2 T02410241
KGWW 180235Z AUTO 00000KT 7SM CLR 24/24 A3009 RMK AO2 T02400240
KGWW 180215Z AUTO 00000KT 7SM SCT095 SCT120 24/24 A3008 RMK AO2 T02360236
KGWW 180155Z AUTO 00000KT 7SM SCT060 BKN085 24/24 A3008 RMK AO2 T02440244
KGWW 180115Z AUTO 00000KT 7SM SCT060 24/24 A3006 RMK AO2 T02440244
KGWW 180055Z AUTO 00000KT 10SM CLR 25/25 A3005 RMK AO2 T02510248
KGWW 172355Z AUTO 00000KT 10SM CLR 26/25 A3005 RMK AO2 T02640251 10341 20222
KGWW 172335Z AUTO 18003KT 10SM CLR 26/25 A3005 RMK AO2 T02640246
KGWW 172315Z AUTO 20005KT 10SM CLR 27/25 A3006 RMK AO2 T02660245
KGWW 172255Z AUTO 16004KT 10SM CLR 27/24 A3006 RMK AO2 T02690241
KGWW 172235Z AUTO 00000KT 10SM CLR 26/24 A3004 RMK AO2 T02590235
KGWW 172215Z AUTO 23003KT 10SM CLR 25/23 A3006 RMK AO2 T02500234
KGWW 172155Z AUTO 15003KT 10SM CLR 24/23 A3007 RMK AO2 T02360228
KGWW 172135Z AUTO 11003KT 10SM CLR 23/23 A3008 RMK AO2 T02270225
KGWW 172115Z AUTO 00000KT 10SM -RA SCT024 SCT030 SCT035 23/23 A3008 RMK AO2 T02300226